createdAt,value
2022-08-31T00:00:09.530Z,45.14
2022-08-31T00:02:54.680Z,46.37
2022-08-31T00:05:21.748Z,45.54
2022-08-31T00:07:48.404Z,45.16
2022-08-31T00:10:15.916Z,46.41
2022-08-31T00:12:43.964Z,45.80
2022-08-31T00:15:13.591Z,46.77
2022-08-31T00:17:40.702Z,45.98
2022-08-31T00:20:09.106Z,45.77
2022-08-31T00:22:57.049Z,45.32
2022-08-31T00:25:24.203Z,45.73
2022-08-31T00:27:51.060Z,45.73
2022-08-31T00:30:18.174Z,45.83
2022-08-31T00:32:44.739Z,46.29
2022-08-31T00:35:12.097Z,46.27
2022-08-31T00:37:38.758Z,46.92
2022-08-31T00:40:06.555Z,46.60
2022-08-31T00:42:33.574Z,46.58
2022-08-31T00:45:00.109Z,46.51
2022-08-31T00:47:26.700Z,46.65
2022-08-31T00:49:53.889Z,45.87
2022-08-31T00:52:27.994Z,46.14
2022-08-31T00:55:10.129Z,46.92
2022-08-31T00:57:38.710Z,46.82
2022-08-31T01:00:09.661Z,47.08
2022-08-31T01:02:36.263Z,47.18
2022-08-31T01:05:02.950Z,45.98
2022-08-31T01:07:29.697Z,45.17
2022-08-31T01:09:58.618Z,45.39
2022-08-31T01:12:26.587Z,45.00
2022-08-31T01:14:53.497Z,45.18
2022-08-31T01:17:21.085Z,44.72
2022-08-31T01:19:57.961Z,45.74
2022-08-31T01:22:37.213Z,45.14
2022-08-31T01:25:04.862Z,45.43
2022-08-31T01:27:33.851Z,45.60
2022-08-31T01:30:01.542Z,45.46
2022-08-31T01:32:28.098Z,45.92
2022-08-31T01:34:54.872Z,46.03
2022-08-31T01:37:29.478Z,45.96
2022-08-31T01:39:57.070Z,46.23
2022-08-31T01:42:23.644Z,45.91
2022-08-31T01:44:59.851Z,46.01
2022-08-31T01:47:26.550Z,45.27
2022-08-31T01:49:55.335Z,45.68
2022-08-31T01:52:27.806Z,45.94
2022-08-31T01:54:55.232Z,44.83
2022-08-31T01:57:33.424Z,44.99
2022-08-31T02:00:04.696Z,45.10
2022-08-31T02:02:31.902Z,45.79
2022-08-31T02:04:59.052Z,45.91
2022-08-31T02:07:26.064Z,44.72
2022-08-31T02:09:53.824Z,44.66
2022-08-31T02:12:20.374Z,44.37
2022-08-31T02:14:46.891Z,44.15
2022-08-31T02:17:13.609Z,43.79
2022-08-31T02:19:40.236Z,44.39
2022-08-31T02:22:06.822Z,44.20
2022-08-31T02:24:33.330Z,43.72
2022-08-31T02:26:59.849Z,44.73
2022-08-31T02:29:26.409Z,44.27
2022-08-31T02:31:53.071Z,45.54
2022-08-31T02:34:19.970Z,45.61
2022-08-31T02:36:46.553Z,45.89
2022-08-31T02:39:14.857Z,45.27
2022-08-31T02:41:42.203Z,45.67
2022-08-31T02:44:08.825Z,44.26
2022-08-31T02:46:35.584Z,45.39
2022-08-31T02:49:02.678Z,44.42
2022-08-31T02:51:29.499Z,45.05
2022-08-31T02:53:56.121Z,44.79
2022-08-31T02:56:23.889Z,44.98
2022-08-31T02:58:54.786Z,44.64
2022-08-31T03:01:26.552Z,44.73
2022-08-31T03:03:53.409Z,45.33
2022-08-31T03:06:20.419Z,45.52
2022-08-31T03:08:47.671Z,45.99
2022-08-31T03:11:14.848Z,44.45
2022-08-31T03:13:42.470Z,44.52
2022-08-31T03:16:10.302Z,44.08
2022-08-31T03:18:36.853Z,44.77
2022-08-31T03:21:03.537Z,43.70
2022-08-31T03:23:30.351Z,44.46
2022-08-31T03:25:56.901Z,44.03
2022-08-31T03:28:23.654Z,44.86
2022-08-31T03:30:50.208Z,45.03
2022-08-31T03:33:17.024Z,44.78
2022-08-31T03:35:44.823Z,44.40
2022-08-31T03:38:12.741Z,44.79
2022-08-31T03:40:40.796Z,44.36
2022-08-31T03:43:11.610Z,45.10
2022-08-31T03:45:40.114Z,45.23
2022-08-31T03:48:11.974Z,45.71
2022-08-31T03:50:39.812Z,45.52
2022-08-31T03:53:07.480Z,45.90
2022-08-31T03:55:36.343Z,45.33
2022-08-31T03:58:03.578Z,45.71
2022-08-31T04:00:31.205Z,45.94
2022-08-31T04:02:59.944Z,45.80
2022-08-31T04:05:31.262Z,46.34
2022-08-31T04:07:58.058Z,46.12
2022-08-31T04:10:24.833Z,46.36
2022-08-31T04:12:51.742Z,45.27
2022-08-31T04:15:18.989Z,45.43
2022-08-31T04:17:46.141Z,45.02
2022-08-31T04:20:13.169Z,44.72
2022-08-31T04:22:40.104Z,44.33
2022-08-31T04:25:07.217Z,43.90
2022-08-31T04:27:33.944Z,44.34
2022-08-31T04:30:02.010Z,44.16
2022-08-31T04:32:28.546Z,44.19
2022-08-31T04:34:56.751Z,44.42
2022-08-31T04:37:23.496Z,44.98
2022-08-31T04:39:52.255Z,43.88
2022-08-31T04:42:19.322Z,43.87
2022-08-31T04:44:45.925Z,43.96
2022-08-31T04:47:12.512Z,44.06
2022-08-31T04:49:39.500Z,44.84
2022-08-31T04:52:06.735Z,44.25
2022-08-31T04:54:33.442Z,43.89
2022-08-31T04:57:00.340Z,43.79
2022-08-31T04:59:27.556Z,44.37
2022-08-31T05:01:54.842Z,43.63
2022-08-31T05:04:24.545Z,44.12
2022-08-31T05:06:51.854Z,43.98
2022-08-31T05:09:22.453Z,45.11
2022-08-31T05:11:53.442Z,44.06
2022-08-31T05:14:22.010Z,44.57
2022-08-31T05:16:49.709Z,45.39
2022-08-31T05:19:16.661Z,45.03
2022-08-31T05:21:44.190Z,45.69
2022-08-31T05:24:15.598Z,45.49
2022-08-31T05:26:45.750Z,45.59
2022-08-31T05:29:14.341Z,45.06
2022-08-31T05:31:42.010Z,44.93
2022-08-31T05:34:08.661Z,45.03
2022-08-31T05:36:35.537Z,44.70
2022-08-31T05:39:02.235Z,44.92
2022-08-31T05:41:30.119Z,45.17
2022-08-31T05:43:57.595Z,45.65
2022-08-31T05:46:24.214Z,46.56
2022-08-31T05:48:51.066Z,46.59
2022-08-31T05:51:18.718Z,46.15
2022-08-31T05:53:45.782Z,46.22
2022-08-31T05:56:25.396Z,46.20
2022-08-31T05:58:54.062Z,46.88
2022-08-31T06:01:31.076Z,46.39
2022-08-31T06:03:59.090Z,48.10
2022-08-31T06:06:25.730Z,46.75
2022-08-31T06:08:53.028Z,46.11
2022-08-31T06:11:22.198Z,46.21
2022-08-31T06:13:51.268Z,46.09
2022-08-31T06:16:18.072Z,47.00
2022-08-31T06:18:51.274Z,45.97
2022-08-31T06:21:22.014Z,46.97
2022-08-31T06:23:50.515Z,46.80
2022-08-31T06:26:19.214Z,46.96
2022-08-31T06:28:47.599Z,47.01
2022-08-31T06:31:22.092Z,46.90
2022-08-31T06:33:48.679Z,45.33
2022-08-31T06:36:17.538Z,45.11
2022-08-31T06:38:44.698Z,46.32
2022-08-31T06:41:19.517Z,45.12
2022-08-31T06:43:46.746Z,46.22
2022-08-31T06:46:17.573Z,45.60
2022-08-31T06:48:44.953Z,46.25
2022-08-31T06:51:12.448Z,45.10
2022-08-31T06:53:40.998Z,44.91
2022-08-31T06:56:20.481Z,44.08
2022-08-31T06:58:48.836Z,45.44
2022-08-31T07:01:35.390Z,44.74
2022-08-31T07:04:08.141Z,44.74
2022-08-31T07:06:38.290Z,44.18
2022-08-31T07:09:06.855Z,44.34
2022-08-31T07:11:44.499Z,44.26
2022-08-31T07:14:13.770Z,44.84
2022-08-31T07:16:41.107Z,43.97
2022-08-31T07:19:08.480Z,45.03
2022-08-31T07:21:46.848Z,45.69
2022-08-31T07:24:15.504Z,45.44
2022-08-31T07:26:43.456Z,45.05
2022-08-31T07:29:11.884Z,45.18
2022-08-31T07:31:46.295Z,44.78
2022-08-31T07:34:25.732Z,45.86
2022-08-31T07:37:16.617Z,45.20
2022-08-31T07:40:06.771Z,45.21
2022-08-31T07:42:43.638Z,45.56
2022-08-31T07:45:23.286Z,44.65
2022-08-31T07:47:53.838Z,44.74
2022-08-31T07:50:21.471Z,44.40
2022-08-31T07:52:54.103Z,44.91
2022-08-31T07:55:22.431Z,43.65
2022-08-31T07:57:50.744Z,43.60
2022-08-31T08:00:21.517Z,43.80
2022-08-31T08:02:53.964Z,43.01
2022-08-31T08:05:27.062Z,42.32
2022-08-31T08:07:57.493Z,42.38
2022-08-31T08:10:27.980Z,42.64
2022-08-31T08:13:05.142Z,43.14
2022-08-31T08:15:35.492Z,43.25
2022-08-31T08:18:04.293Z,40.85
2022-08-31T08:20:37.205Z,39.34
2022-08-31T08:23:13.902Z,38.43
2022-08-31T08:25:45.083Z,38.89
2022-08-31T08:31:11.703Z,38.79
2022-08-31T08:33:39.213Z,39.13
2022-08-31T08:36:09.115Z,40.01
2022-08-31T08:38:43.688Z,39.94
2022-08-31T08:41:19.266Z,39.26
2022-08-31T08:43:53.894Z,39.21
2022-08-31T08:47:38.385Z,38.91
2022-08-31T08:49:40.955Z,38.30
2022-08-31T08:52:15.434Z,37.35
2022-08-31T08:54:45.020Z,37.75
2022-08-31T08:57:15.118Z,37.45
2022-08-31T08:59:46.947Z,37.19
2022-08-31T09:02:41.602Z,36.37
2022-08-31T09:05:36.220Z,34.89
2022-08-31T09:08:14.344Z,35.74
2022-08-31T09:10:43.563Z,35.68
2022-08-31T09:13:30.153Z,34.06
2022-08-31T09:16:14.342Z,34.00
2022-08-31T09:18:56.725Z,32.89
2022-08-31T09:21:37.079Z,33.29
2022-08-31T09:24:07.451Z,31.88
2022-08-31T09:26:57.168Z,31.67
2022-08-31T09:29:27.688Z,33.09
2022-08-31T09:32:07.659Z,31.49
2022-08-31T09:34:37.355Z,28.61
2022-08-31T09:37:20.791Z,25.96
2022-08-31T09:39:49.378Z,22.34
2022-08-31T09:42:33.802Z,20.13
2022-08-31T09:45:14.177Z,19.07
2022-08-31T09:47:48.772Z,18.57
2022-08-31T09:50:26.675Z,15.85
2022-08-31T09:53:33.941Z,16.29
2022-08-31T09:56:13.213Z,16.33
2022-08-31T09:58:57.201Z,17.56
2022-08-31T10:01:44.440Z,16.42
2022-08-31T10:04:18.587Z,14.83
2022-08-31T10:06:49.793Z,14.15
2022-08-31T10:09:22.117Z,14.22
2022-08-31T10:11:51.155Z,14.42
2022-08-31T10:14:26.594Z,13.79
2022-08-31T10:17:00.275Z,13.67
2022-08-31T10:19:47.679Z,15.53
2022-08-31T10:22:25.664Z,14.07
2022-08-31T10:25:04.500Z,15.22
2022-08-31T10:27:38.418Z,14.60
2022-08-31T10:30:09.617Z,16.58
2022-08-31T10:32:42.836Z,17.54
2022-08-31T10:35:19.315Z,18.39
2022-08-31T10:37:59.542Z,17.24
2022-08-31T10:40:32.562Z,19.26
2022-08-31T10:43:22.014Z,19.46
2022-08-31T10:45:51.847Z,24.19
2022-08-31T10:48:24.638Z,25.39
2022-08-31T10:51:19.296Z,26.80
2022-08-31T10:53:52.260Z,27.12
2022-08-31T10:56:39.886Z,27.84
2022-08-31T10:59:29.960Z,29.64
2022-08-31T11:02:21.114Z,28.14
2022-08-31T11:05:01.071Z,27.78
2022-08-31T11:07:50.682Z,27.17
2022-08-31T11:10:59.258Z,25.62
2022-08-31T11:13:48.652Z,25.35
2022-08-31T11:16:57.449Z,25.17
2022-08-31T11:19:50.675Z,20.54
2022-08-31T11:22:20.511Z,17.23
2022-08-31T11:25:03.819Z,15.63
2022-08-31T11:27:40.096Z,17.33
2022-08-31T11:30:16.343Z,14.74
2022-08-31T11:32:47.823Z,15.13
2022-08-31T11:35:15.571Z,15.76
2022-08-31T11:37:46.746Z,13.76
2022-08-31T11:40:15.083Z,12.48
2022-08-31T11:42:41.648Z,11.62
2022-08-31T11:45:29.960Z,12.65
2022-08-31T11:47:57.510Z,17.20
2022-08-31T11:50:36.782Z,15.28
2022-08-31T11:53:20.991Z,15.01
2022-08-31T11:55:51.635Z,14.27
2022-08-31T11:58:26.218Z,14.38
2022-08-31T12:01:09.280Z,12.75
2022-08-31T12:03:35.985Z,11.98
2022-08-31T12:06:02.630Z,12.14
2022-08-31T12:08:32.405Z,13.14
2022-08-31T12:11:12.058Z,15.15
2022-08-31T12:13:49.732Z,16.74
2022-08-31T12:16:31.636Z,17.64
2022-08-31T12:19:43.518Z,19.30
2022-08-31T12:22:42.697Z,20.83
2022-08-31T12:25:41.993Z,23.85
2022-08-31T12:28:46.179Z,23.50
2022-08-31T12:31:15.681Z,25.33
2022-08-31T12:34:12.545Z,25.42
2022-08-31T12:36:39.372Z,25.66
2022-08-31T12:39:09.725Z,27.27
2022-08-31T12:42:05.543Z,27.16
2022-08-31T12:44:52.345Z,26.64
2022-08-31T12:47:52.885Z,26.16
2022-08-31T12:50:32.143Z,25.15
2022-08-31T12:53:06.863Z,25.07
2022-08-31T12:55:49.153Z,25.86
2022-08-31T12:58:51.175Z,24.94
2022-08-31T13:01:22.290Z,26.30
2022-08-31T13:03:53.974Z,27.07
2022-08-31T13:06:34.532Z,27.02
2022-08-31T13:09:01.711Z,26.35
2022-08-31T13:11:42.691Z,26.41
2022-08-31T13:14:23.008Z,26.91
2022-08-31T13:16:52.723Z,26.87
2022-08-31T13:19:26.404Z,26.97
2022-08-31T13:21:58.517Z,26.76
2022-08-31T13:24:32.074Z,26.49
2022-08-31T13:27:21.832Z,26.84
2022-08-31T13:29:49.645Z,27.23
2022-08-31T13:32:31.575Z,26.83
2022-08-31T13:35:01.793Z,26.87
2022-08-31T13:37:32.066Z,26.60
2022-08-31T13:40:12.945Z,27.59
2022-08-31T13:42:45.529Z,27.06
2022-08-31T13:45:25.029Z,26.57
2022-08-31T13:47:57.215Z,26.63
2022-08-31T13:50:52.543Z,26.70
2022-08-31T13:53:53.773Z,26.89
2022-08-31T13:56:48.154Z,26.05
2022-08-31T13:59:23.115Z,26.63
2022-08-31T14:01:55.951Z,26.29
2022-08-31T14:04:53.058Z,26.36
2022-08-31T14:07:27.990Z,27.74
2022-08-31T14:10:07.966Z,28.16
2022-08-31T14:12:47.263Z,29.14
2022-08-31T14:15:53.445Z,29.18
2022-08-31T14:18:27.418Z,30.13
2022-08-31T14:21:27.468Z,30.14
2022-08-31T14:24:01.949Z,29.82
2022-08-31T14:26:34.564Z,28.90
2022-08-31T14:29:10.655Z,29.18
2022-08-31T14:31:51.932Z,29.32
2022-08-31T14:34:30.222Z,28.71
2022-08-31T14:37:06.820Z,28.07
2022-08-31T14:39:41.720Z,28.48
2022-08-31T14:42:14.458Z,27.91
2022-08-31T14:44:42.230Z,27.25
2022-08-31T14:47:12.349Z,26.92
2022-08-31T14:49:41.060Z,26.47
2022-08-31T14:52:08.062Z,26.65
2022-08-31T14:54:37.202Z,26.96
2022-08-31T14:57:10.112Z,27.62
2022-08-31T14:59:40.489Z,26.73
2022-08-31T15:02:10.185Z,26.44
2022-08-31T15:04:40.900Z,27.13
2022-08-31T15:07:09.962Z,27.85
2022-08-31T15:09:37.445Z,28.01
2022-08-31T15:12:06.057Z,28.84
2022-08-31T15:14:36.884Z,28.70
2022-08-31T15:17:06.694Z,27.66
2022-08-31T15:19:38.541Z,27.58
2022-08-31T15:22:09.164Z,27.25
2022-08-31T15:24:37.890Z,27.52
2022-08-31T15:27:07.357Z,27.12
2022-08-31T15:29:33.885Z,27.32
2022-08-31T15:32:01.069Z,27.61
2022-08-31T15:34:31.005Z,27.70
2022-08-31T15:37:01.208Z,27.29
2022-08-31T15:39:35.012Z,26.79
2022-08-31T15:42:09.135Z,27.09
2022-08-31T15:44:40.108Z,27.03
2022-08-31T15:47:27.009Z,27.00
2022-08-31T15:49:54.692Z,28.15
2022-08-31T15:52:24.588Z,29.46
2022-08-31T15:54:52.026Z,29.76
2022-08-31T15:57:18.918Z,29.23
2022-08-31T15:59:45.977Z,28.69
2022-08-31T16:02:13.854Z,29.47
2022-08-31T16:04:46.064Z,28.45
2022-08-31T16:07:13.127Z,28.33
2022-08-31T16:09:46.118Z,28.14
2022-08-31T16:12:14.094Z,27.91
2022-08-31T16:14:44.358Z,27.96
2022-08-31T16:17:12.275Z,28.44
2022-08-31T16:19:39.387Z,28.57
2022-08-31T16:22:08.234Z,28.23
2022-08-31T16:24:38.057Z,29.05
2022-08-31T16:27:07.986Z,28.88
2022-08-31T16:29:35.986Z,28.80
2022-08-31T16:32:03.828Z,29.70
2022-08-31T16:34:31.479Z,30.26
2022-08-31T16:36:58.376Z,30.04
2022-08-31T16:39:28.045Z,30.33
2022-08-31T16:41:55.232Z,30.26
2022-08-31T16:44:21.747Z,30.15
2022-08-31T16:46:48.936Z,29.87
2022-08-31T16:49:33.562Z,30.41
2022-08-31T16:52:03.274Z,30.61
2022-08-31T16:54:30.294Z,30.71
2022-08-31T16:56:57.813Z,31.46
2022-08-31T16:59:26.051Z,31.22
2022-08-31T17:01:53.018Z,31.22
2022-08-31T17:04:50.529Z,31.52
2022-08-31T17:07:12.803Z,31.25
2022-08-31T17:09:40.317Z,31.50
2022-08-31T17:12:13.127Z,31.21
2022-08-31T17:14:45.613Z,31.68
2022-08-31T17:17:17.678Z,31.68
2022-08-31T17:19:45.407Z,31.61
2022-08-31T17:22:21.469Z,31.97
2022-08-31T17:24:49.618Z,31.63
2022-08-31T17:27:19.878Z,31.66
2022-08-31T17:29:49.769Z,31.27
2022-08-31T17:32:19.034Z,31.48
2022-08-31T17:34:51.244Z,31.57
2022-08-31T17:37:22.979Z,31.87
2022-08-31T17:39:53.072Z,31.78
2022-08-31T17:42:21.816Z,31.87
2022-08-31T17:44:50.774Z,31.82
2022-08-31T17:47:18.081Z,31.87
2022-08-31T17:49:46.767Z,32.05
2022-08-31T17:52:13.960Z,31.85
2022-08-31T17:54:42.949Z,31.99
2022-08-31T17:57:13.035Z,31.83
2022-08-31T17:59:42.375Z,31.50
2022-08-31T18:02:15.047Z,31.53
2022-08-31T18:04:42.236Z,31.47
2022-08-31T18:07:10.089Z,31.98
2022-08-31T18:09:44.146Z,31.78
2022-08-31T18:12:11.212Z,32.14
2022-08-31T18:14:38.826Z,32.45
2022-08-31T18:17:08.575Z,31.94
2022-08-31T18:19:35.669Z,31.99
2022-08-31T18:22:03.025Z,31.99
2022-08-31T18:24:35.206Z,31.48
2022-08-31T18:27:04.090Z,32.19
2022-08-31T18:29:33.977Z,31.97
2022-08-31T18:32:04.410Z,32.04
2022-08-31T18:34:33.674Z,32.56
2022-08-31T18:37:00.302Z,32.58
2022-08-31T18:39:50.505Z,32.19
2022-08-31T18:42:34.602Z,32.08
2022-08-31T18:45:18.392Z,32.13
2022-08-31T18:48:20.792Z,31.91
2022-08-31T18:50:42.340Z,32.21
2022-08-31T18:53:15.138Z,31.77
2022-08-31T18:55:43.592Z,31.76
2022-08-31T18:58:10.459Z,31.77
2022-08-31T19:00:37.115Z,31.59
2022-08-31T19:03:03.840Z,31.77
2022-08-31T19:05:31.458Z,31.46
2022-08-31T19:08:00.080Z,31.29
2022-08-31T19:10:26.898Z,31.51
2022-08-31T19:12:57.279Z,31.95
2022-08-31T19:15:33.624Z,31.48
2022-08-31T19:18:05.417Z,31.39
2022-08-31T19:20:33.291Z,31.66
2022-08-31T19:23:00.489Z,31.31
2022-08-31T19:25:30.821Z,31.43
2022-08-31T19:28:01.195Z,31.36
2022-08-31T19:30:28.682Z,31.30
2022-08-31T19:32:56.378Z,31.92
2022-08-31T19:35:27.039Z,31.25
2022-08-31T19:37:55.412Z,30.96
2022-08-31T19:40:22.712Z,31.08
2022-08-31T19:45:45.353Z,30.85
2022-08-31T19:48:12.913Z,30.58
2022-08-31T19:50:41.988Z,30.63
2022-08-31T19:53:12.070Z,30.91
2022-08-31T19:55:50.691Z,30.35
2022-08-31T19:58:19.156Z,30.92
2022-08-31T20:00:48.380Z,30.99
2022-08-31T20:03:16.313Z,30.47
2022-08-31T20:05:43.476Z,30.61
2022-08-31T20:08:10.874Z,30.46
2022-08-31T20:10:41.831Z,30.46
2022-08-31T20:13:09.949Z,30.90
2022-08-31T20:15:44.776Z,30.92
2022-08-31T20:18:12.998Z,30.93
2022-08-31T20:20:45.697Z,31.20
2022-08-31T20:23:16.400Z,31.25
2022-08-31T20:25:45.861Z,31.33
2022-08-31T20:28:13.182Z,31.44
2022-08-31T20:30:41.575Z,30.98
2022-08-31T20:33:09.625Z,30.70
2022-08-31T20:35:42.469Z,31.05
2022-08-31T20:38:14.216Z,30.98
2022-08-31T20:40:42.466Z,30.97
2022-08-31T20:43:11.596Z,31.20
2022-08-31T20:45:39.003Z,31.09
2022-08-31T20:48:24.503Z,31.40
2022-08-31T20:50:51.213Z,31.12
2022-08-31T20:53:26.369Z,30.73
2022-08-31T20:56:06.935Z,30.86
2022-08-31T20:58:33.484Z,30.29
2022-08-31T21:01:04.916Z,30.57
2022-08-31T21:03:31.590Z,30.55
2022-08-31T21:06:08.161Z,30.39
2022-08-31T21:08:38.193Z,30.62
2022-08-31T21:11:16.955Z,30.56
2022-08-31T21:13:44.564Z,30.69
2022-08-31T21:16:11.586Z,30.85
2022-08-31T21:18:39.979Z,30.92
2022-08-31T21:21:09.263Z,30.65
2022-08-31T21:23:37.266Z,30.56
2022-08-31T21:26:04.930Z,31.08
2022-08-31T21:28:31.572Z,30.91
2022-08-31T21:31:18.424Z,31.08
2022-08-31T21:33:58.717Z,31.22
2022-08-31T21:36:26.676Z,30.78
2022-08-31T21:38:54.871Z,30.94
2022-08-31T21:41:23.688Z,30.65
2022-08-31T21:43:50.586Z,30.94
2022-08-31T21:46:23.148Z,31.10
2022-08-31T21:48:51.470Z,31.03
2022-08-31T21:51:24.445Z,31.39
2022-08-31T21:53:54.311Z,31.18
2022-08-31T21:56:22.525Z,31.82
2022-08-31T21:58:49.946Z,31.16
2022-08-31T22:01:20.441Z,31.33
2022-08-31T22:03:54.267Z,31.50
2022-08-31T22:06:30.849Z,31.50
2022-08-31T22:09:05.645Z,31.62
2022-08-31T22:11:37.194Z,31.70
2022-08-31T22:14:04.966Z,31.60
2022-08-31T22:16:32.538Z,32.08
2022-08-31T22:19:01.319Z,31.73
2022-08-31T22:21:31.956Z,31.86
2022-08-31T22:24:01.029Z,31.75
2022-08-31T22:26:29.998Z,32.13
2022-08-31T22:28:56.749Z,31.63
2022-08-31T22:31:25.131Z,31.54
2022-08-31T22:33:51.977Z,31.34
2022-08-31T22:36:31.076Z,31.91
2022-08-31T22:39:10.734Z,32.05
2022-08-31T22:41:38.212Z,32.25
2022-08-31T22:44:06.359Z,32.00
2022-08-31T22:46:33.918Z,32.42
2022-08-31T22:49:00.707Z,32.62
2022-08-31T22:51:27.533Z,32.57
2022-08-31T22:53:54.126Z,32.36
2022-08-31T22:56:27.008Z,32.44
2022-08-31T22:58:58.312Z,32.43
2022-08-31T23:01:28.538Z,32.33
2022-08-31T23:03:57.782Z,32.10
2022-08-31T23:06:26.646Z,32.48
2022-08-31T23:08:54.926Z,33.09
2022-08-31T23:11:22.954Z,32.89
2022-08-31T23:13:57.359Z,32.52
2022-08-31T23:16:39.718Z,33.20
2022-08-31T23:19:14.474Z,32.62
2022-08-31T23:21:52.852Z,33.18
2022-08-31T23:24:27.910Z,32.87
2022-08-31T23:27:03.048Z,33.04
2022-08-31T23:29:32.304Z,32.88
2022-08-31T23:32:00.860Z,33.26
2022-08-31T23:34:27.836Z,33.05
2022-08-31T23:36:55.580Z,33.38
2022-08-31T23:39:23.551Z,33.83
2022-08-31T23:41:50.529Z,33.45
2022-08-31T23:44:20.415Z,33.54
2022-08-31T23:46:47.625Z,33.69
2022-08-31T23:49:17.531Z,33.95
2022-08-31T23:51:45.282Z,33.59
2022-08-31T23:54:12.535Z,33.53
2022-08-31T23:56:41.685Z,33.55
2022-08-31T23:59:11.613Z,34.33
